sensor_id;sensor_type;location;lat;lon;timestamp;pressure;altitude;pressure_sealevel;temperature;humidity
76728;BME280;65652;53.132;18.026;2023-08-06T00:01:15;100364.82;;;16.53;79.94
76728;BME280;65652;53.132;18.026;2023-08-06T00:03:48;100357.69;;;16.50;80.04
76728;BME280;65652;53.132;18.026;2023-08-06T00:06:15;100355.20;;;16.47;79.95
76728;BME280;65652;53.132;18.026;2023-08-06T00:08:42;100349.24;;;16.45;80.08
76728;BME280;65652;53.132;18.026;2023-08-06T00:11:09;100342.36;;;16.43;80.15
76728;BME280;65652;53.132;18.026;2023-08-06T00:13:36;100323.75;;;16.42;80.19
76728;BME280;65652;53.132;18.026;2023-08-06T00:16:12;100317.89;;;16.40;80.09
76728;BME280;65652;53.132;18.026;2023-08-06T00:18:40;100307.31;;;16.37;80.34
76728;BME280;65652;53.132;18.026;2023-08-06T00:21:07;100309.18;;;16.37;80.29
76728;BME280;65652;53.132;18.026;2023-08-06T00:23:34;100314.02;;;16.35;80.41
76728;BME280;65652;53.132;18.026;2023-08-06T00:26:01;100315.56;;;16.34;80.43
76728;BME280;65652;53.132;18.026;2023-08-06T00:28:27;100307.40;;;16.35;80.50
76728;BME280;65652;53.132;18.026;2023-08-06T00:30:55;100290.80;;;16.36;80.37
76728;BME280;65652;53.132;18.026;2023-08-06T00:33:23;100276.82;;;16.36;80.51
76728;BME280;65652;53.132;18.026;2023-08-06T00:35:50;100277.44;;;16.38;80.36
76728;BME280;65652;53.132;18.026;2023-08-06T00:38:17;100268.95;;;16.40;80.49
76728;BME280;65652;53.132;18.026;2023-08-06T00:40:44;100259.63;;;16.39;80.59
76728;BME280;65652;53.132;18.026;2023-08-06T00:43:11;100256.12;;;16.38;80.56
76728;BME280;65652;53.132;18.026;2023-08-06T00:45:38;100255.13;;;16.37;80.59
76728;BME280;65652;53.132;18.026;2023-08-06T00:48:05;100260.49;;;16.37;80.62
76728;BME280;65652;53.132;18.026;2023-08-06T00:50:35;100257.82;;;16.37;80.75
76728;BME280;65652;53.132;18.026;2023-08-06T00:53:02;100249.70;;;16.36;80.68
76728;BME280;65652;53.132;18.026;2023-08-06T00:55:29;100246.16;;;16.36;80.97
76728;BME280;65652;53.132;18.026;2023-08-06T00:57:56;100236.08;;;16.36;80.95
76728;BME280;65652;53.132;18.026;2023-08-06T01:00:24;100230.56;;;16.35;80.99
76728;BME280;65652;53.132;18.026;2023-08-06T01:02:51;100220.94;;;16.35;80.99
76728;BME280;65652;53.132;18.026;2023-08-06T01:05:20;100210.82;;;16.35;81.05
76728;BME280;65652;53.132;18.026;2023-08-06T01:15:49;100171.09;;;16.40;81.19
76728;BME280;65652;53.132;18.026;2023-08-06T01:18:16;100167.09;;;16.40;81.34
76728;BME280;65652;53.132;18.026;2023-08-06T01:20:43;100161.58;;;16.40;81.26
76728;BME280;65652;53.132;18.026;2023-08-06T01:23:10;100149.61;;;16.41;81.24
76728;BME280;65652;53.132;18.026;2023-08-06T01:28:29;100123.31;;;16.43;81.35
76728;BME280;65652;53.132;18.026;2023-08-06T01:30:59;100108.55;;;16.43;81.32
76728;BME280;65652;53.132;18.026;2023-08-06T01:33:30;100097.66;;;16.41;81.53
76728;BME280;65652;53.132;18.026;2023-08-06T01:35:59;100093.70;;;16.40;81.48
76728;BME280;65652;53.132;18.026;2023-08-06T01:38:26;100089.45;;;16.40;81.51
76728;BME280;65652;53.132;18.026;2023-08-06T01:40:54;100085.02;;;16.40;81.48
76728;BME280;65652;53.132;18.026;2023-08-06T01:43:21;100081.66;;;16.41;81.44
76728;BME280;65652;53.132;18.026;2023-08-06T01:45:48;100080.10;;;16.41;81.41
76728;BME280;65652;53.132;18.026;2023-08-06T01:48:15;100077.33;;;16.40;81.44
76728;BME280;65652;53.132;18.026;2023-08-06T01:50:42;100071.61;;;16.40;81.44
76728;BME280;65652;53.132;18.026;2023-08-06T01:53:08;100068.54;;;16.40;81.69
76728;BME280;65652;53.132;18.026;2023-08-06T01:55:35;100058.58;;;16.40;81.52
76728;BME280;65652;53.132;18.026;2023-08-06T01:58:02;100044.77;;;16.41;81.54
76728;BME280;65652;53.132;18.026;2023-08-06T02:00:29;100041.02;;;16.39;81.77
76728;BME280;65652;53.132;18.026;2023-08-06T02:02:56;100038.21;;;16.39;81.95
76728;BME280;65652;53.132;18.026;2023-08-06T02:05:22;100026.02;;;16.38;82.00
76728;BME280;65652;53.132;18.026;2023-08-06T02:07:49;100016.56;;;16.38;81.86
76728;BME280;65652;53.132;18.026;2023-08-06T02:10:16;100003.94;;;16.38;81.75
76728;BME280;65652;53.132;18.026;2023-08-06T02:12:43;99993.34;;;16.38;81.87
76728;BME280;65652;53.132;18.026;2023-08-06T02:15:09;99979.71;;;16.38;81.96
76728;BME280;65652;53.132;18.026;2023-08-06T02:17:36;99970.19;;;16.37;81.84
76728;BME280;65652;53.132;18.026;2023-08-06T02:20:04;99952.05;;;16.36;81.75
76728;BME280;65652;53.132;18.026;2023-08-06T02:22:31;99942.77;;;16.37;81.81
76728;BME280;65652;53.132;18.026;2023-08-06T02:24:57;99942.60;;;16.37;81.87
76728;BME280;65652;53.132;18.026;2023-08-06T02:27:24;99933.17;;;16.36;81.94
76728;BME280;65652;53.132;18.026;2023-08-06T02:29:51;99929.88;;;16.36;81.74
76728;BME280;65652;53.132;18.026;2023-08-06T02:32:18;99934.41;;;16.36;81.95
76728;BME280;65652;53.132;18.026;2023-08-06T02:34:45;99938.80;;;16.36;81.91
76728;BME280;65652;53.132;18.026;2023-08-06T02:37:12;99941.84;;;16.35;81.99
76728;BME280;65652;53.132;18.026;2023-08-06T02:39:39;99944.70;;;16.34;82.22
76728;BME280;65652;53.132;18.026;2023-08-06T02:42:07;99948.85;;;16.34;82.20
76728;BME280;65652;53.132;18.026;2023-08-06T02:44:35;99953.02;;;16.34;82.06
76728;BME280;65652;53.132;18.026;2023-08-06T02:47:02;99948.25;;;16.34;82.25
76728;BME280;65652;53.132;18.026;2023-08-06T02:49:29;99932.52;;;16.33;82.26
76728;BME280;65652;53.132;18.026;2023-08-06T02:51:56;99942.67;;;16.33;82.29
76728;BME280;65652;53.132;18.026;2023-08-06T02:54:23;99942.85;;;16.33;82.22
76728;BME280;65652;53.132;18.026;2023-08-06T02:56:50;99937.96;;;16.34;82.24
76728;BME280;65652;53.132;18.026;2023-08-06T02:59:27;99931.18;;;16.35;82.29
76728;BME280;65652;53.132;18.026;2023-08-06T03:02:05;99926.75;;;16.35;82.38
76728;BME280;65652;53.132;18.026;2023-08-06T03:05:00;99932.73;;;16.36;82.39
76728;BME280;65652;53.132;18.026;2023-08-06T03:07:30;99931.95;;;16.38;82.37
76728;BME280;65652;53.132;18.026;2023-08-06T03:10:02;99926.09;;;16.41;82.26
76728;BME280;65652;53.132;18.026;2023-08-06T03:12:29;99921.08;;;16.44;82.30
76728;BME280;65652;53.132;18.026;2023-08-06T03:14:58;99920.95;;;16.44;82.30
76728;BME280;65652;53.132;18.026;2023-08-06T03:17:25;99923.17;;;16.47;82.23
76728;BME280;65652;53.132;18.026;2023-08-06T03:19:52;99923.06;;;16.49;82.13
76728;BME280;65652;53.132;18.026;2023-08-06T03:22:19;99929.67;;;16.51;82.24
76728;BME280;65652;53.132;18.026;2023-08-06T03:24:50;99929.30;;;16.55;82.14
76728;BME280;65652;53.132;18.026;2023-08-06T03:27:18;99928.00;;;16.56;82.24
76728;BME280;65652;53.132;18.026;2023-08-06T03:29:45;99928.48;;;16.58;82.07
76728;BME280;65652;53.132;18.026;2023-08-06T03:32:12;99922.64;;;16.58;82.09
76728;BME280;65652;53.132;18.026;2023-08-06T03:34:39;99920.46;;;16.58;81.95
76728;BME280;65652;53.132;18.026;2023-08-06T03:37:07;99919.71;;;16.57;82.04
76728;BME280;65652;53.132;18.026;2023-08-06T03:39:34;99914.42;;;16.57;82.07
76728;BME280;65652;53.132;18.026;2023-08-06T03:42:01;99915.15;;;16.58;82.14
76728;BME280;65652;53.132;18.026;2023-08-06T03:44:28;99910.77;;;16.60;82.13
76728;BME280;65652;53.132;18.026;2023-08-06T03:46:55;99899.08;;;16.63;82.13
76728;BME280;65652;53.132;18.026;2023-08-06T03:49:21;99877.92;;;16.66;82.15
76728;BME280;65652;53.132;18.026;2023-08-06T03:51:48;99863.63;;;16.68;82.15
76728;BME280;65652;53.132;18.026;2023-08-06T03:54:15;99839.88;;;16.69;82.10
76728;BME280;65652;53.132;18.026;2023-08-06T03:56:42;99820.21;;;16.70;82.18
76728;BME280;65652;53.132;18.026;2023-08-06T03:59:09;99800.91;;;16.70;82.15
76728;BME280;65652;53.132;18.026;2023-08-06T04:01:36;99784.01;;;16.70;82.24
76728;BME280;65652;53.132;18.026;2023-08-06T04:04:03;99763.19;;;16.70;82.37
76728;BME280;65652;53.132;18.026;2023-08-06T04:06:30;99734.61;;;16.67;82.31
76728;BME280;65652;53.132;18.026;2023-08-06T04:08:56;99713.36;;;16.65;82.42
76728;BME280;65652;53.132;18.026;2023-08-06T04:11:23;99720.10;;;16.64;82.58
76728;BME280;65652;53.132;18.026;2023-08-06T04:13:50;99722.48;;;16.63;82.76
76728;BME280;65652;53.132;18.026;2023-08-06T04:16:17;99722.02;;;16.63;82.77
76728;BME280;65652;53.132;18.026;2023-08-06T04:18:44;99713.31;;;16.62;82.90
76728;BME280;65652;53.132;18.026;2023-08-06T04:21:13;99712.92;;;16.63;82.92
76728;BME280;65652;53.132;18.026;2023-08-06T04:23:40;99725.11;;;16.64;82.90
76728;BME280;65652;53.132;18.026;2023-08-06T04:26:08;99727.92;;;16.65;82.83
76728;BME280;65652;53.132;18.026;2023-08-06T04:28:35;99727.13;;;16.69;82.86
76728;BME280;65652;53.132;18.026;2023-08-06T04:31:02;99724.27;;;16.71;82.80
76728;BME280;65652;53.132;18.026;2023-08-06T04:33:31;99724.01;;;16.73;82.87
76728;BME280;65652;53.132;18.026;2023-08-06T04:35:59;99725.37;;;16.77;82.86
76728;BME280;65652;53.132;18.026;2023-08-06T04:38:27;99728.39;;;16.78;82.85
76728;BME280;65652;53.132;18.026;2023-08-06T04:40:54;99728.25;;;16.82;82.81
76728;BME280;65652;53.132;18.026;2023-08-06T04:43:21;99728.02;;;16.85;82.80
76728;BME280;65652;53.132;18.026;2023-08-06T04:45:54;99726.60;;;16.88;82.82
76728;BME280;65652;53.132;18.026;2023-08-06T04:48:22;99729.95;;;16.90;82.67
76728;BME280;65652;53.132;18.026;2023-08-06T04:50:50;99725.56;;;16.93;82.83
76728;BME280;65652;53.132;18.026;2023-08-06T04:53:17;99721.74;;;16.95;82.81
76728;BME280;65652;53.132;18.026;2023-08-06T04:55:44;99697.89;;;16.98;82.81
76728;BME280;65652;53.132;18.026;2023-08-06T04:58:12;99670.88;;;17.00;82.78
76728;BME280;65652;53.132;18.026;2023-08-06T05:00:39;99654.60;;;17.02;82.93
76728;BME280;65652;53.132;18.026;2023-08-06T05:03:06;99641.69;;;17.04;82.92
76728;BME280;65652;53.132;18.026;2023-08-06T05:05:33;99634.31;;;17.06;83.10
76728;BME280;65652;53.132;18.026;2023-08-06T05:08:00;99627.16;;;17.07;83.12
76728;BME280;65652;53.132;18.026;2023-08-06T05:10:27;99617.21;;;17.11;83.17
76728;BME280;65652;53.132;18.026;2023-08-06T05:12:54;99628.84;;;17.13;83.10
76728;BME280;65652;53.132;18.026;2023-08-06T05:15:21;99651.65;;;17.16;83.10
76728;BME280;65652;53.132;18.026;2023-08-06T05:17:48;99667.45;;;17.20;83.14
76728;BME280;65652;53.132;18.026;2023-08-06T05:20:15;99666.64;;;17.24;83.22
76728;BME280;65652;53.132;18.026;2023-08-06T05:22:43;99659.80;;;17.29;83.29
76728;BME280;65652;53.132;18.026;2023-08-06T05:25:13;99654.48;;;17.31;83.18
76728;BME280;65652;53.132;18.026;2023-08-06T05:27:40;99658.31;;;17.34;83.16
76728;BME280;65652;53.132;18.026;2023-08-06T05:30:08;99649.98;;;17.38;83.27
76728;BME280;65652;53.132;18.026;2023-08-06T05:32:34;99644.91;;;17.43;83.28
76728;BME280;65652;53.132;18.026;2023-08-06T05:35:01;99649.33;;;17.47;83.29
76728;BME280;65652;53.132;18.026;2023-08-06T05:37:29;99651.27;;;17.50;83.31
76728;BME280;65652;53.132;18.026;2023-08-06T05:39:56;99649.99;;;17.54;83.25
76728;BME280;65652;53.132;18.026;2023-08-06T05:42:22;99651.28;;;17.58;83.31
76728;BME280;65652;53.132;18.026;2023-08-06T05:44:49;99645.85;;;17.62;83.43
76728;BME280;65652;53.132;18.026;2023-08-06T05:47:16;99640.61;;;17.65;83.44
76728;BME280;65652;53.132;18.026;2023-08-06T05:49:43;99646.14;;;17.68;83.54
76728;BME280;65652;53.132;18.026;2023-08-06T05:52:09;99645.77;;;17.69;83.64
76728;BME280;65652;53.132;18.026;2023-08-06T05:54:36;99649.13;;;17.71;83.57
76728;BME280;65652;53.132;18.026;2023-08-06T05:57:03;99650.49;;;17.73;83.65
76728;BME280;65652;53.132;18.026;2023-08-06T05:59:30;99650.38;;;17.76;83.79
76728;BME280;65652;53.132;18.026;2023-08-06T06:01:57;99643.57;;;17.80;83.70
76728;BME280;65652;53.132;18.026;2023-08-06T06:04:24;99638.09;;;17.85;83.69
76728;BME280;65652;53.132;18.026;2023-08-06T06:06:51;99633.95;;;17.91;83.68
76728;BME280;65652;53.132;18.026;2023-08-06T06:09:18;99622.10;;;17.98;83.75
76728;BME280;65652;53.132;18.026;2023-08-06T06:11:45;99612.05;;;18.01;83.65
76728;BME280;65652;53.132;18.026;2023-08-06T06:14:12;99607.59;;;18.02;83.62
76728;BME280;65652;53.132;18.026;2023-08-06T06:16:39;99606.52;;;18.04;83.51
76728;BME280;65652;53.132;18.026;2023-08-06T06:19:05;99608.05;;;18.08;83.58
76728;BME280;65652;53.132;18.026;2023-08-06T06:21:32;99602.65;;;18.10;83.45
76728;BME280;65652;53.132;18.026;2023-08-06T06:23:59;99602.36;;;18.12;83.59
76728;BME280;65652;53.132;18.026;2023-08-06T06:26:26;99592.88;;;18.16;83.56
76728;BME280;65652;53.132;18.026;2023-08-06T06:28:53;99585.93;;;18.20;83.65
76728;BME280;65652;53.132;18.026;2023-08-06T06:31:20;99581.73;;;18.24;83.58
76728;BME280;65652;53.132;18.026;2023-08-06T06:33:46;99575.82;;;18.27;83.44
76728;BME280;65652;53.132;18.026;2023-08-06T06:36:13;99569.58;;;18.31;83.56
76728;BME280;65652;53.132;18.026;2023-08-06T06:38:40;99566.02;;;18.34;83.59
76728;BME280;65652;53.132;18.026;2023-08-06T06:41:07;99564.48;;;18.38;83.57
76728;BME280;65652;53.132;18.026;2023-08-06T06:43:34;99560.34;;;18.41;83.44
76728;BME280;65652;53.132;18.026;2023-08-06T06:46:01;99558.73;;;18.44;83.45
76728;BME280;65652;53.132;18.026;2023-08-06T06:48:29;99553.77;;;18.46;83.36
76728;BME280;65652;53.132;18.026;2023-08-06T06:50:56;99550.42;;;18.50;83.36
76728;BME280;65652;53.132;18.026;2023-08-06T06:53:23;99549.05;;;18.53;83.37
76728;BME280;65652;53.132;18.026;2023-08-06T06:56:03;99548.38;;;18.58;83.38
76728;BME280;65652;53.132;18.026;2023-08-06T06:58:31;99546.21;;;18.63;83.39
76728;BME280;65652;53.132;18.026;2023-08-06T07:00:58;99542.80;;;18.68;83.39
76728;BME280;65652;53.132;18.026;2023-08-06T07:03:25;99538.73;;;18.73;83.17
76728;BME280;65652;53.132;18.026;2023-08-06T07:05:57;99531.95;;;18.76;83.06
76728;BME280;65652;53.132;18.026;2023-08-06T07:08:24;99529.58;;;18.80;83.14
76728;BME280;65652;53.132;18.026;2023-08-06T07:10:51;99527.17;;;18.83;82.89
76728;BME280;65652;53.132;18.026;2023-08-06T07:13:25;99526.30;;;18.86;82.91
76728;BME280;65652;53.132;18.026;2023-08-06T07:15:54;99527.52;;;18.87;82.91
76728;BME280;65652;53.132;18.026;2023-08-06T07:18:21;99519.50;;;18.90;82.88
76728;BME280;65652;53.132;18.026;2023-08-06T07:20:53;99514.00;;;18.92;82.93
76728;BME280;65652;53.132;18.026;2023-08-06T07:23:21;99512.16;;;18.95;82.75
76728;BME280;65652;53.132;18.026;2023-08-06T07:25:48;99506.61;;;18.99;82.85
76728;BME280;65652;53.132;18.026;2023-08-06T07:28:15;99500.88;;;19.03;82.85
76728;BME280;65652;53.132;18.026;2023-08-06T07:30:43;99491.48;;;19.08;82.99
76728;BME280;65652;53.132;18.026;2023-08-06T07:33:10;99494.29;;;19.13;82.85
76728;BME280;65652;53.132;18.026;2023-08-06T07:35:37;99494.11;;;19.17;82.69
76728;BME280;65652;53.132;18.026;2023-08-06T07:38:04;99482.44;;;19.19;82.62
76728;BME280;65652;53.132;18.026;2023-08-06T07:40:31;99473.09;;;19.20;82.58
76728;BME280;65652;53.132;18.026;2023-08-06T07:42:58;99469.62;;;19.20;82.60
76728;BME280;65652;53.132;18.026;2023-08-06T07:45:25;99465.25;;;19.22;82.52
76728;BME280;65652;53.132;18.026;2023-08-06T07:47:53;99468.68;;;19.25;82.46
76728;BME280;65652;53.132;18.026;2023-08-06T07:50:20;99465.16;;;19.25;82.37
76728;BME280;65652;53.132;18.026;2023-08-06T07:52:47;99454.64;;;19.27;82.41
76728;BME280;65652;53.132;18.026;2023-08-06T07:55:14;99447.31;;;19.30;82.38
76728;BME280;65652;53.132;18.026;2023-08-06T07:57:40;99445.70;;;19.30;82.31
76728;BME280;65652;53.132;18.026;2023-08-06T08:00:08;99444.72;;;19.29;82.38
76728;BME280;65652;53.132;18.026;2023-08-06T08:02:39;99444.95;;;19.30;82.32
76728;BME280;65652;53.132;18.026;2023-08-06T08:05:06;99444.76;;;19.37;82.35
76728;BME280;65652;53.132;18.026;2023-08-06T08:07:34;99439.34;;;19.49;82.24
76728;BME280;65652;53.132;18.026;2023-08-06T08:10:01;99437.83;;;19.65;82.12
76728;BME280;65652;53.132;18.026;2023-08-06T08:12:28;99440.73;;;19.81;81.77
76728;BME280;65652;53.132;18.026;2023-08-06T08:14:55;99439.71;;;19.91;81.45
76728;BME280;65652;53.132;18.026;2023-08-06T08:17:21;99445.62;;;19.96;81.05
76728;BME280;65652;53.132;18.026;2023-08-06T08:19:48;99444.30;;;19.92;80.57
76728;BME280;65652;53.132;18.026;2023-08-06T08:22:15;99440.66;;;19.87;80.89
76728;BME280;65652;53.132;18.026;2023-08-06T08:24:42;99434.26;;;19.83;80.93
76728;BME280;65652;53.132;18.026;2023-08-06T08:27:09;99425.41;;;19.79;80.74
76728;BME280;65652;53.132;18.026;2023-08-06T08:29:36;99423.61;;;19.77;80.77
76728;BME280;65652;53.132;18.026;2023-08-06T08:32:03;99415.39;;;19.73;80.98
76728;BME280;65652;53.132;18.026;2023-08-06T08:34:29;99408.54;;;19.72;81.05
76728;BME280;65652;53.132;18.026;2023-08-06T08:36:56;99401.52;;;19.71;81.11
76728;BME280;65652;53.132;18.026;2023-08-06T08:39:23;99393.23;;;19.73;81.28
76728;BME280;65652;53.132;18.026;2023-08-06T08:41:50;99390.20;;;19.81;81.26
76728;BME280;65652;53.132;18.026;2023-08-06T08:44:17;99391.23;;;19.90;81.16
76728;BME280;65652;53.132;18.026;2023-08-06T08:46:45;99388.64;;;20.03;81.14
76728;BME280;65652;53.132;18.026;2023-08-06T08:49:14;99383.80;;;20.14;80.74
76728;BME280;65652;53.132;18.026;2023-08-06T08:51:43;99377.52;;;20.26;80.66
76728;BME280;65652;53.132;18.026;2023-08-06T08:54:12;99370.45;;;20.32;80.22
76728;BME280;65652;53.132;18.026;2023-08-06T08:56:39;99365.41;;;20.41;80.28
76728;BME280;65652;53.132;18.026;2023-08-06T08:59:06;99366.98;;;20.50;79.91
76728;BME280;65652;53.132;18.026;2023-08-06T09:01:34;99366.06;;;20.59;79.68
76728;BME280;65652;53.132;18.026;2023-08-06T09:04:01;99368.83;;;20.68;79.65
76728;BME280;65652;53.132;18.026;2023-08-06T09:06:29;99363.38;;;20.75;79.16
76728;BME280;65652;53.132;18.026;2023-08-06T09:09:08;99352.95;;;20.82;79.15
76728;BME280;65652;53.132;18.026;2023-08-06T09:11:39;99341.69;;;20.92;79.07
76728;BME280;65652;53.132;18.026;2023-08-06T09:14:09;99340.17;;;21.02;78.99
76728;BME280;65652;53.132;18.026;2023-08-06T09:16:36;99340.91;;;21.09;78.64
76728;BME280;65652;53.132;18.026;2023-08-06T09:19:10;99340.42;;;21.10;78.42
76728;BME280;65652;53.132;18.026;2023-08-06T09:21:39;99342.56;;;21.14;78.38
76728;BME280;65652;53.132;18.026;2023-08-06T09:24:10;99336.47;;;21.16;78.10
76728;BME280;65652;53.132;18.026;2023-08-06T09:26:42;99332.60;;;21.15;78.01
76728;BME280;65652;53.132;18.026;2023-08-06T09:29:10;99328.73;;;21.12;78.09
76728;BME280;65652;53.132;18.026;2023-08-06T09:34:11;99315.13;;;21.02;77.91
76728;BME280;65652;53.132;18.026;2023-08-06T09:36:40;99308.33;;;20.93;77.93
76728;BME280;65652;53.132;18.026;2023-08-06T09:39:14;99311.98;;;20.88;78.19
76728;BME280;65652;53.132;18.026;2023-08-06T09:41:42;99319.86;;;20.88;78.33
76728;BME280;65652;53.132;18.026;2023-08-06T09:44:28;99317.49;;;20.86;78.38
76728;BME280;65652;53.132;18.026;2023-08-06T09:47:01;99313.89;;;20.81;78.48
76728;BME280;65652;53.132;18.026;2023-08-06T09:49:41;99303.14;;;20.78;78.43
76728;BME280;65652;53.132;18.026;2023-08-06T09:52:12;99287.67;;;20.78;78.51
76728;BME280;65652;53.132;18.026;2023-08-06T09:54:40;99290.41;;;20.77;78.38
76728;BME280;65652;53.132;18.026;2023-08-06T09:57:07;99285.67;;;20.73;78.41
76728;BME280;65652;53.132;18.026;2023-08-06T09:59:36;99284.90;;;20.70;78.61
76728;BME280;65652;53.132;18.026;2023-08-06T10:02:12;99283.04;;;20.75;78.87
76728;BME280;65652;53.132;18.026;2023-08-06T10:04:45;99271.52;;;20.82;78.83
76728;BME280;65652;53.132;18.026;2023-08-06T10:07:14;99266.04;;;20.87;78.45
76728;BME280;65652;53.132;18.026;2023-08-06T10:09:42;99254.35;;;20.87;78.22
76728;BME280;65652;53.132;18.026;2023-08-06T10:12:09;99243.10;;;20.91;78.40
76728;BME280;65652;53.132;18.026;2023-08-06T10:14:37;99236.75;;;20.99;78.54
76728;BME280;65652;53.132;18.026;2023-08-06T10:17:04;99244.50;;;21.06;78.37
76728;BME280;65652;53.132;18.026;2023-08-06T10:19:31;99249.68;;;21.11;78.39
76728;BME280;65652;53.132;18.026;2023-08-06T10:22:12;99252.28;;;21.15;78.32
76728;BME280;65652;53.132;18.026;2023-08-06T10:24:56;99246.87;;;21.21;78.21
76728;BME280;65652;53.132;18.026;2023-08-06T10:30:22;99235.87;;;21.30;78.29
76728;BME280;65652;53.132;18.026;2023-08-06T10:32:51;99233.87;;;21.35;77.99
76728;BME280;65652;53.132;18.026;2023-08-06T10:35:31;99230.75;;;21.38;78.02
76728;BME280;65652;53.132;18.026;2023-08-06T10:38:15;99229.23;;;21.39;77.89
76728;BME280;65652;53.132;18.026;2023-08-06T10:40:48;99223.98;;;21.41;77.99
76728;BME280;65652;53.132;18.026;2023-08-06T10:43:45;99218.86;;;21.43;78.06
76728;BME280;65652;53.132;18.026;2023-08-06T10:46:26;99217.79;;;21.49;77.91
76728;BME280;65652;53.132;18.026;2023-08-06T10:48:54;99207.14;;;21.47;77.76
76728;BME280;65652;53.132;18.026;2023-08-06T10:51:20;99202.27;;;21.39;77.79
76728;BME280;65652;53.132;18.026;2023-08-06T10:53:49;99200.13;;;21.35;77.96
76728;BME280;65652;53.132;18.026;2023-08-06T10:56:17;99188.79;;;21.32;78.16
76728;BME280;65652;53.132;18.026;2023-08-06T10:58:45;99182.15;;;21.30;78.14
76728;BME280;65652;53.132;18.026;2023-08-06T11:01:13;99180.64;;;21.30;78.25
76728;BME280;65652;53.132;18.026;2023-08-06T11:03:41;99172.95;;;21.31;78.29
76728;BME280;65652;53.132;18.026;2023-08-06T11:06:08;99172.35;;;21.30;78.14
76728;BME280;65652;53.132;18.026;2023-08-06T11:08:36;99167.30;;;21.29;78.31
76728;BME280;65652;53.132;18.026;2023-08-06T11:11:13;99158.06;;;21.25;78.28
76728;BME280;65652;53.132;18.026;2023-08-06T11:13:45;99157.91;;;21.20;78.31
76728;BME280;65652;53.132;18.026;2023-08-06T11:16:14;99154.05;;;21.16;78.52
76728;BME280;65652;53.132;18.026;2023-08-06T11:18:41;99149.27;;;21.14;78.61
76728;BME280;65652;53.132;18.026;2023-08-06T11:21:08;99145.02;;;21.08;78.59
76728;BME280;65652;53.132;18.026;2023-08-06T11:23:35;99142.09;;;21.08;78.79
76728;BME280;65652;53.132;18.026;2023-08-06T11:26:03;99138.69;;;21.08;79.02
76728;BME280;65652;53.132;18.026;2023-08-06T11:28:30;99128.55;;;21.09;79.01
76728;BME280;65652;53.132;18.026;2023-08-06T11:30:57;99125.54;;;21.07;78.85
76728;BME280;65652;53.132;18.026;2023-08-06T11:33:28;99125.45;;;21.07;78.99
76728;BME280;65652;53.132;18.026;2023-08-06T11:35:56;99120.20;;;21.06;79.24
76728;BME280;65652;53.132;18.026;2023-08-06T11:38:30;99106.85;;;21.05;79.16
76728;BME280;65652;53.132;18.026;2023-08-06T11:40:57;99093.16;;;21.01;79.12
76728;BME280;65652;53.132;18.026;2023-08-06T11:43:24;99076.64;;;21.00;79.20
76728;BME280;65652;53.132;18.026;2023-08-06T11:45:51;99074.56;;;21.01;79.34
76728;BME280;65652;53.132;18.026;2023-08-06T11:48:20;99075.23;;;20.97;79.27
76728;BME280;65652;53.132;18.026;2023-08-06T11:50:47;99079.48;;;20.94;79.46
76728;BME280;65652;53.132;18.026;2023-08-06T11:53:14;99076.73;;;20.93;79.52
76728;BME280;65652;53.132;18.026;2023-08-06T11:55:42;99073.70;;;20.93;79.45
76728;BME280;65652;53.132;18.026;2023-08-06T11:58:09;99070.83;;;20.94;79.57
76728;BME280;65652;53.132;18.026;2023-08-06T12:00:39;99063.78;;;20.93;79.54
76728;BME280;65652;53.132;18.026;2023-08-06T12:03:05;99060.58;;;20.94;79.67
76728;BME280;65652;53.132;18.026;2023-08-06T12:05:32;99059.39;;;20.90;79.65
76728;BME280;65652;53.132;18.026;2023-08-06T12:08:01;99052.77;;;20.91;79.85
76728;BME280;65652;53.132;18.026;2023-08-06T12:10:30;99044.21;;;20.94;79.86
76728;BME280;65652;53.132;18.026;2023-08-06T12:12:57;99047.71;;;20.97;79.97
76728;BME280;65652;53.132;18.026;2023-08-06T12:15:24;99050.98;;;21.02;80.00
76728;BME280;65652;53.132;18.026;2023-08-06T12:17:51;99057.55;;;21.04;79.85
76728;BME280;65652;53.132;18.026;2023-08-06T12:20:19;99056.85;;;21.06;79.90
76728;BME280;65652;53.132;18.026;2023-08-06T12:22:47;99056.38;;;21.07;79.89
76728;BME280;65652;53.132;18.026;2023-08-06T12:25:14;99053.95;;;21.07;79.87
76728;BME280;65652;53.132;18.026;2023-08-06T12:27:42;99057.84;;;21.08;79.83
76728;BME280;65652;53.132;18.026;2023-08-06T12:30:11;99052.63;;;21.08;79.91
76728;BME280;65652;53.132;18.026;2023-08-06T12:32:38;99050.54;;;21.06;79.92
76728;BME280;65652;53.132;18.026;2023-08-06T12:35:06;99055.52;;;21.07;80.01
76728;BME280;65652;53.132;18.026;2023-08-06T12:37:34;99054.13;;;21.08;80.08
76728;BME280;65652;53.132;18.026;2023-08-06T12:40:01;99053.80;;;21.08;80.02
76728;BME280;65652;53.132;18.026;2023-08-06T12:42:28;99049.73;;;21.08;80.11
76728;BME280;65652;53.132;18.026;2023-08-06T12:44:55;99036.46;;;21.08;80.15
76728;BME280;65652;53.132;18.026;2023-08-06T12:47:22;99027.77;;;21.07;80.18
76728;BME280;65652;53.132;18.026;2023-08-06T12:49:49;99020.21;;;21.09;80.24
76728;BME280;65652;53.132;18.026;2023-08-06T12:52:16;99015.80;;;21.09;80.33
76728;BME280;65652;53.132;18.026;2023-08-06T12:54:46;99016.77;;;21.12;80.44
76728;BME280;65652;53.132;18.026;2023-08-06T12:57:13;99006.55;;;21.15;80.41
76728;BME280;65652;53.132;18.026;2023-08-06T12:59:40;99000.44;;;21.17;80.47
76728;BME280;65652;53.132;18.026;2023-08-06T13:02:06;98995.08;;;21.19;80.54
76728;BME280;65652;53.132;18.026;2023-08-06T13:04:33;98988.90;;;21.22;80.57
76728;BME280;65652;53.132;18.026;2023-08-06T13:07:00;98992.64;;;21.24;80.53
76728;BME280;65652;53.132;18.026;2023-08-06T13:09:27;98991.00;;;21.26;80.49